FW6884 Weather Reports


Display with metric or nautical units.
time (UTC)temp
F
wind
direction
speed
MPH
gust
MPH
rain 1hr
in
rain 24hr
in
rain mn
in
humidity
%
barometer
mb
20210918143318 60 312 1.0 3.0 0.00 0.00 0.00 26 1014.0
20210918141616 59 298 3.0 6.0 0.00 0.00 0.00 26 1013.9
20210918140109 58 291 1.0 2.0 0.00 0.00 0.00 26 1013.7
20210918134613 58 283 0.0 2.0 0.00 0.00 0.00 25 1013.5
20210918133056 59 282 1.0 4.0 0.00 0.00 0.00 25 1013.4
20210918131615 58 299 1.0 3.0 0.00 0.00 0.00 25 1013.4
20210918130116 59 307 0.0 2.0 0.00 0.00 0.00 25 1013.2
20210918124617 59 306 1.0 3.0 0.00 0.00 0.00 25 1013.1
20210918123116 58 224 1.0 4.0 0.00 0.00 0.00 25 1012.8
20210918121614 58 276 1.0 3.0 0.00 0.00 0.00 27 1012.9
20210918120124 58 224 2.0 3.0 0.00 0.00 0.00 28 1012.6
20210918114558 58 343 2.0 4.0 0.00 0.00 0.00 30 1012.7
20210918113133 58 284 2.0 3.0 0.00 0.00 0.00 31 1012.7
20210918111622 58 310 1.0 3.0 0.00 0.00 0.00 32 1012.8
20210918110105 58 311 1.0 3.0 0.00 0.00 0.00 32 1012.9
20210918104638 58 311 2.0 4.0 0.00 0.00 0.00 32 1013.1
20210918103116 58 324 1.0 2.0 0.00 0.00 0.00 31 1013.0
20210918101603 59 325 0.0 3.0 0.00 0.00 0.00 29 1013.0
20210918100119 60 309 1.0 3.0 0.00 0.00 0.00 28 1013.2
20210918094544 60 294 2.0 7.0 0.00 0.00 0.00 27 1013.2
20210918093050 60 327 0.0 3.0 0.00 0.00 0.00 28 1013.3
20210918091605 61 339 1.0 4.0 0.00 0.00 0.00 28 1013.5
20210918090138 60 301 2.0 5.0 0.00 0.00 0.00 28 1013.5
20210918084539 60 333 2.0 5.0 0.00 0.00 0.00 29 1013.6
20210918083045 61 300 1.0 7.0 0.00 0.00 0.00 29 1013.6
20210918081606 60 312 2.0 4.0 0.00 0.00 0.00 29 1013.6
20210918080035 60 308 2.0 4.0 0.00 0.00 0.00 29 1013.6
20210918074542 60 314 1.0 3.0 0.00 0.00 0.00 31 1013.5
20210918073026 60 302 1.0 3.0 0.00 0.00 0.00 31 1013.6
20210918071556 60 298 2.0 4.0 0.00 0.00 0.00 32 1013.7
20210918070030 60 300 2.0 4.0 0.00 0.00 0.00 31 1013.8
20210918064527 59 290 2.0 3.0 0.00 0.00 0.00 33 1013.7
20210918063016 60 306 1.0 4.0 0.00 0.00 0.00 34 1013.7
20210918061513 60 300 2.0 4.0 0.00 0.00 0.00 32 1013.6
20210918060019 60 306 3.0 7.0 0.00 0.00 0.00 35 1013.5
20210918054510 60 297 2.0 4.0 0.00 0.00 0.00 38 1013.4
20210918053008 60 296 3.0 4.0 0.00 0.00 0.00 38 1013.3
20210918051507 60 305 1.0 4.0 0.00 0.00 0.00 40 1013.1
20210918050012 60 302 1.0 4.0 0.00 0.00 0.00 44 1013.0
20210918044514 60 303 2.0 4.0 0.00 0.00 0.00 49 1012.9
20210918043009 60 309 1.0 3.0 0.00 0.00 0.00 49 1012.9
20210918041500 60 312 2.0 3.0 0.00 0.00 0.00 48 1012.9
20210918040211 61 310 1.0 3.0 0.00 0.00 0.00 47 1012.8
20210918034627 61 314 1.0 3.0 0.00 0.00 0.00 46 1012.7
20210918033127 61 298 1.0 3.0 0.00 0.00 0.00 44 1012.4
20210918031632 62 296 2.0 4.0 0.00 0.00 0.00 41 1012.3
20210918030127 62 299 2.0 3.0 0.00 0.00 0.00 40 1012.1
20210918024700 63 322 1.0 2.0 0.00 0.00 0.00 39 1012.1
20210918023057 64 321 1.0 3.0 0.00 0.00 0.00 37 1011.9
20210918021616 64 315 3.0 6.0 0.00 0.00 0.00 37 1011.8
20210918020112 64 309 1.0 3.0 0.00 0.00 0.00 37 1011.7
20210918014617 64 315 1.0 3.0 0.00 0.00 0.00 36 1011.7
20210918013141 65 313 1.0 3.0 0.00 0.00 0.00 36 1011.9
20210918011554 66 319 1.0 3.0 0.00 0.00 0.00 35 1011.9
20210918010116 67 316 1.0 8.0 0.00 0.00 0.00 33 1011.9
20210918004650 70 344 4.0 10.0 0.00 0.00 0.00 31 1011.9
20210918003105 70 315 2.0 5.0 0.00 0.00 0.00 30 1012.0
20210918001638 71 154 2.0 5.0 0.00 0.00 0.00 30 1011.9
20210918000113 72 309 1.0 5.0 0.00 0.00 0.00 29 1011.9
20210917234614 72 23 3.0 8.0 0.00 0.00 0.00 28 1012.0
20210917233249 73 311 3.0 9.0 0.00 0.00 0.00 29 1012.1
20210917231610 73 5 4.0 8.0 0.00 0.00 0.00 28 1012.2
20210917230125 75 294 3.0 10.0 0.00 0.00 0.00 27 1012.1
20210917224601 75 284 4.0 9.0 0.00 0.00 0.00 27 1012.1
20210917223057 74 316 3.0 11.0 0.00 0.00 0.00 27 1012.1
20210917221650 75 311 3.0 9.0 0.00 0.00 0.00 27 1012.1
20210917220058 75 271 5.0 12.0 0.00 0.00 0.00 26 1012.4
20210917214638 76 312 4.0 9.0 0.00 0.00 0.00 25 1012.4
20210917213211 76 36 4.0 10.0 0.00 0.00 0.00 26 1012.3
20210917211548 77 343 3.0 10.0 0.00 0.00 0.00 25 1012.3
20210917210048 77 287 5.0 10.0 0.00 0.00 0.00 24 1012.3
20210917204619 77 308 6.0 13.0 0.00 0.00 0.00 24 1012.6
20210917203045 76 340 5.0 13.0 0.00 0.00 0.00 24 1012.5
20210917201556 77 5 4.0 10.0 0.00 0.00 0.00 23 1012.5
20210917200221 76 319 4.0 11.0 0.00 0.00 0.00 22 1012.6
20210917194633 76 18 3.0 13.0 0.00 0.00 0.00 23 1012.4
20210917193111 76 5 5.0 12.0 0.00 0.00 0.00 23 1012.5
20210917191534 77 65 3.0 10.0 0.00 0.00 0.00 22 1012.3
20210917190059 77 323 4.0 11.0 0.00 0.00 0.00 23 1012.4
20210917184537 77 257 6.0 13.0 0.00 0.00 0.00 22 1012.4
20210917183131 78 360 4.0 10.0 0.00 0.00 0.00 21 1012.3
20210917181521 77 15 3.0 8.0 0.00 0.00 0.00 21 1012.3
20210917180021 76 323 2.0 8.0 0.00 0.00 0.00 23 1012.2
20210917174521 77 360 3.0 9.0 0.00 0.00 0.00 23 1012.3
20210917173012 76 335 2.0 9.0 0.00 0.00 0.00 25 1012.3
20210917171532 76 355 4.0 10.0 0.00 0.00 0.00 25 1012.3
20210917170003 74 338 4.0 7.0 0.00 0.00 0.00 26 1012.2
20210917164623 75 316 5.0 10.0 0.00 0.00 0.00 24 1012.0
20210917163219 73 5 3.0 9.0 0.00 0.00 0.00 26 1012.0
20210917161555 73 344 3.0 6.0 0.00 0.00 0.00 26 1011.7
20210917160103 71 287 2.0 5.0 0.00 0.00 0.00 28 1011.6
20210917154634 71 325 3.0 6.0 0.00 0.00 0.00 28 1011.5
20210917153044 70 338 2.0 6.0 0.00 0.00 0.00 31 1011.3
20210917151536 69 317 3.0 6.0 0.00 0.00 0.00 32 1011.1
20210917150144 67 324 2.0 5.0 0.00 0.00 0.00 37 1010.9
20210917144534 65 309 1.0 3.0 0.00 0.00 0.00 40 1010.7